Portada
METAR-TAF:

METAR-TAF

Aeroports :

Dalian, Xina

latitud: 38-54N, longitud: 121-38E, altitud: 97 m

Observació

L'informe es va fer fa 31 minuts, a les 10:30 UTC
Vent 4 kt del Nord, variant entre Oest/Nord-Oest i Nord/Nord-Est
Temperatura -1°C
Humitat 40%
Pressió 1036 hPa
Visibilitat 10 km o més
sense núvols per sota de 1500 mi sense presència de cumulonimbus.

METAR: ZYTL 241030Z 35002MPS 300V020 CAVOK M01/M13 Q1036 NOSIG

Hora: 19:01 (11:01 UTC)

Pronòstic

L'informe es va fer fa 7 hores i 56 minuts, a les 03:05 UTC
Pronòstic vàlid del 24 a les 06 UTC al 25 a les 06 UTC
Vent 8 kt del Nord amb ràfegues de 19 kt
Visibilitat 10 km o més
sense núvols per sota de 1500 mi sense presència de cumulonimbus.

TAF: ZYTL 240305Z 2406/2506 36004G10MPS CAVOK TX03/2506Z TNM06/2421Z

Observacions i pronòstics meteorològics de més de 4000 aeroports (METAR i TAF).

Les estacions disponibles són els punts grocs i vermells al mapa.

Posi el ratolí al punt desitjat per veure el nom de l'estació.

Feu clic per veure les observacions i els pronòstics meteorològics.

Per canviar el mapa: feu clic els botons verds amb una creu de color negre per apropar; al botó verd amb un guió per allunyar la imatge; o en les fletxes verdes per a mapes adjacents.


METAR-TAF: